Iwakuni Marine Corps Air Station
RJOI : now visible

Airfield :











YOU CAN JOIN US ON...

 
LOGIN :

Register | Disclaimer

   EN    FR    IT 

 









Legend :    VFR   Marginal VFR   IFR   Intensive IFR   Very Intensive IFR
Visi :
Ceiling :
>= 8 km
>= 3000ft
5 to 8 km
1000 to 3000 ft
1500m to 5 km
500 to 1000 ft
800 to 1500m
200 to 500 ft
< 800m
< 200 ft
Symbols :   Thunderstorms  Fog  Heavy snow  Heavy precipitations  Wind > 20 kt






- Airport Elevation : 7 ft


RJOI - Iwakuni Marine Corps Air Station

CURRENT METAR :
  • 190556Z 15004KT 9999 FEW025 FEW140 SCT210 33/25 A2978 RMK AO2 CB DSNT E S TCU DSNT SE SLP084 60000 T03330250 10339 20306 58007

EXPIRED METARs :
  • 190456Z 21006KT 9999 FEW025 SCT140 BKN210 33/25 A2979 RMK AO2 SHRAB34E50 CB DSNT E SLP088 P0000 T03280250
  • 190356Z 17010KT 9999 FEW025 BKN045 BKN065 32/25 A2981 RMK AO2 TCU DSNT E-SE SLP093 T03220250
  • 190256Z 17012KT 9999 FEW025 BKN045 BKN140 32/24 A2980 RMK A02 SLP091 T03220244 56007
  • 190156Z 15011KT 9999 FEW025 BKN050 BKN250 31/25 A2980 RMK AO2 SLP092 T03110250

TAF TAF RJOI
Valid from the 19 at 03:00 until the 20 at 03:00 UTC


190319Z 1903/2003 18010KT 9999 FEW025 SCT050 BKN250 QNH2975INS
TEMPO 1903/1906 20012G22KT 9000 -SHRA BR SCT015 BKN030CB OVC050
FM190600 19010KT 9999 FEW025 BKN050 BKN120 QNH2976INS
FM190900 20008KT 9999 FEW025 SCT050 BKN200 QNH2977INS
FM191800 23009KT 9999 FEW020 SCT050 BKN200 QNH2982INS
FM192100 21010KT 9999 SCT020 BKN050 BKN180 QNH2982INS T32/1906Z T26/1921Z
RJJJ FIR / Asia



MET'MAP, your aeronautical weather chart ! - Copyright ORBIFLY December 2007 - Disclaimer

ORBIFLY MET'MAP TEAM :

Programming & Development : Alexandra Zaïnal
Original concept : Baudouin d'Aumeries
Technical & hardware support : Manuel Goepfert
Assistance : Marc-Olivier Méhu




SOURCES & CREDITS :

   NOAA       Earth
Advisory